sim
Sign-in with your pilot id or email,
or register
Callsign
Passwort

Schedule Details

Flight Number: RYR5477 (1)
Departure: Fuerteventura Airport (GCFV) at 16:05
Arrival: Madrid Barajas Airport (LEMD) at 18:45
Route: Ryanair Passenger Schedule. Enter filed route here before submitting Pirep.

Weather Information
Getting current METAR information for GCFV 212130Z 34010KT 300V360 9999 SCT029 19/13 Q1015
Getting current METAR information for LEMD 212130Z 03005KT 340V080 9999 BKN045 11/05 Q1009 NOSIG

Schedule Frequency

Route Map